CheckWX is a tool to help pilots better visualize weather data.  It is not intended as a substitute for an official pre-flight weather briefing.

07:57:07 UTC

CYBC TAF
Baie Comeau Airport
Baie-Comeau, Quebec, Canada
TAF CYBC 141938Z 1420/1508 10012G22KT P6SM SKC TEMPO 1420/1424 FEW030 FM150000 06008KT P6SM SKC RMK FCST BASED ON AUTO OBS. NXT FCST BY 150200Z

Jul-14@
20:00 UTC

Jul-14 @ 20:00 UTC

Jul-15@
00:00 UTC

Jul-15 @ 00:00 UTC

TAF CYBC 141938Z 1420/1508 10012G22KT P6SM SKC

Expired

Wind
  • 100° at 12 KTS
  • {Gusting to 22 KTS
Cloud Levels
  • Clear skies

Jul-14@
20:00 UTC

Jul-14 @ 20:00 UTC

Jul-15@
00:00 UTC

Jul-15 @ 00:00 UTC

TEMPO 1420/1424 FEW030

Expired

Cloud Levels
  • Few at 3,000' AGL

Jul-15@
00:00 UTC

Jul-15 @ 00:00 UTC

Jul-15@
08:00 UTC

Jul-15 @ 08:00 UTC

FM150000 06008KT P6SM SKC RMK FCST BASED ON AUTO OBS. NXT FCST BY 150200Z

From

From Standard forecast or significant change

Wind
  • 060° at 8 KTS
Cloud Levels
  • Clear skies